sensor_id;sensor_type;location;lat;lon;timestamp;P1;durP1;ratioP1;P2;durP2;ratioP2
50671;SDS011;46021;55.882;37.654;2023-07-31T00:01:00;10.05;;;4.90;;
50671;SDS011;46021;55.882;37.654;2023-07-31T00:03:28;6.60;;;4.38;;
50671;SDS011;46021;55.882;37.654;2023-07-31T00:05:55;10.52;;;4.78;;
50671;SDS011;46021;55.882;37.654;2023-07-31T00:08:22;8.60;;;4.65;;
50671;SDS011;46021;55.882;37.654;2023-07-31T00:10:51;8.85;;;4.35;;
50671;SDS011;46021;55.882;37.654;2023-07-31T00:13:20;7.40;;;4.50;;
50671;SDS011;46021;55.882;37.654;2023-07-31T00:15:48;7.63;;;4.18;;
50671;SDS011;46021;55.882;37.654;2023-07-31T00:18:15;10.02;;;4.70;;
50671;SDS011;46021;55.882;37.654;2023-07-31T00:20:42;9.18;;;4.60;;
50671;SDS011;46021;55.882;37.654;2023-07-31T00:23:10;9.50;;;4.82;;
50671;SDS011;46021;55.882;37.654;2023-07-31T00:25:37;8.15;;;4.95;;
50671;SDS011;46021;55.882;37.654;2023-07-31T00:28:04;9.18;;;4.93;;
50671;SDS011;46021;55.882;37.654;2023-07-31T00:30:33;12.57;;;4.65;;
50671;SDS011;46021;55.882;37.654;2023-07-31T00:33:00;8.45;;;4.85;;
50671;SDS011;46021;55.882;37.654;2023-07-31T00:35:29;11.45;;;5.07;;
50671;SDS011;46021;55.882;37.654;2023-07-31T00:37:58;10.15;;;5.25;;
50671;SDS011;46021;55.882;37.654;2023-07-31T00:40:26;7.85;;;4.70;;
50671;SDS011;46021;55.882;37.654;2023-07-31T00:42:53;9.02;;;4.30;;
50671;SDS011;46021;55.882;37.654;2023-07-31T00:45:21;10.20;;;4.55;;
50671;SDS011;46021;55.882;37.654;2023-07-31T00:47:54;6.50;;;4.50;;
50671;SDS011;46021;55.882;37.654;2023-07-31T00:50:21;9.05;;;4.70;;
50671;SDS011;46021;55.882;37.654;2023-07-31T00:52:49;8.07;;;4.68;;
50671;SDS011;46021;55.882;37.654;2023-07-31T00:55:17;8.20;;;4.90;;
50671;SDS011;46021;55.882;37.654;2023-07-31T00:57:45;8.10;;;4.25;;
50671;SDS011;46021;55.882;37.654;2023-07-31T01:00:13;7.88;;;4.85;;
50671;SDS011;46021;55.882;37.654;2023-07-31T01:02:41;5.80;;;4.15;;
50671;SDS011;46021;55.882;37.654;2023-07-31T01:05:10;7.63;;;4.68;;
50671;SDS011;46021;55.882;37.654;2023-07-31T01:07:39;8.70;;;4.65;;
50671;SDS011;46021;55.882;37.654;2023-07-31T01:10:15;13.20;;;4.82;;
50671;SDS011;46021;55.882;37.654;2023-07-31T01:12:48;10.15;;;4.50;;
50671;SDS011;46021;55.882;37.654;2023-07-31T01:15:17;15.63;;;5.30;;
50671;SDS011;46021;55.882;37.654;2023-07-31T01:17:44;8.05;;;4.47;;
50671;SDS011;46021;55.882;37.654;2023-07-31T01:20:14;7.65;;;4.60;;
50671;SDS011;46021;55.882;37.654;2023-07-31T01:28:42;10.25;;;4.35;;
50671;SDS011;46021;55.882;37.654;2023-07-31T01:31:18;13.82;;;4.68;;
50671;SDS011;46021;55.882;37.654;2023-07-31T01:33:49;7.13;;;4.22;;
50671;SDS011;46021;55.882;37.654;2023-07-31T01:36:17;11.80;;;5.15;;
50671;SDS011;46021;55.882;37.654;2023-07-31T01:38:45;9.60;;;4.75;;
50671;SDS011;46021;55.882;37.654;2023-07-31T01:41:16;9.55;;;4.30;;
50671;SDS011;46021;55.882;37.654;2023-07-31T01:43:43;7.60;;;4.20;;
50671;SDS011;46021;55.882;37.654;2023-07-31T01:46:11;7.18;;;4.45;;
50671;SDS011;46021;55.882;37.654;2023-07-31T01:48:39;5.97;;;4.00;;
50671;SDS011;46021;55.882;37.654;2023-07-31T01:51:06;10.52;;;4.90;;
50671;SDS011;46021;55.882;37.654;2023-07-31T01:53:35;10.00;;;4.40;;
50671;SDS011;46021;55.882;37.654;2023-07-31T01:56:03;7.10;;;4.38;;
50671;SDS011;46021;55.882;37.654;2023-07-31T01:58:34;8.60;;;4.32;;
50671;SDS011;46021;55.882;37.654;2023-07-31T02:01:01;7.53;;;3.78;;
50671;SDS011;46021;55.882;37.654;2023-07-31T02:03:28;11.38;;;4.30;;
50671;SDS011;46021;55.882;37.654;2023-07-31T02:05:56;6.80;;;4.28;;
50671;SDS011;46021;55.882;37.654;2023-07-31T02:08:25;6.53;;;4.18;;
50671;SDS011;46021;55.882;37.654;2023-07-31T02:10:53;8.10;;;4.40;;
50671;SDS011;46021;55.882;37.654;2023-07-31T02:13:21;8.18;;;4.38;;
50671;SDS011;46021;55.882;37.654;2023-07-31T02:18:17;9.77;;;4.20;;
50671;SDS011;46021;55.882;37.654;2023-07-31T02:20:48;6.63;;;4.25;;
50671;SDS011;46021;55.882;37.654;2023-07-31T02:23:16;7.45;;;4.30;;
50671;SDS011;46021;55.882;37.654;2023-07-31T02:25:44;7.70;;;3.85;;
50671;SDS011;46021;55.882;37.654;2023-07-31T02:28:11;8.57;;;4.05;;
50671;SDS011;46021;55.882;37.654;2023-07-31T02:30:39;9.02;;;4.10;;
50671;SDS011;46021;55.882;37.654;2023-07-31T02:33:07;9.35;;;4.25;;
50671;SDS011;46021;55.882;37.654;2023-07-31T02:35:35;10.77;;;4.40;;
50671;SDS011;46021;55.882;37.654;2023-07-31T02:38:03;8.13;;;3.83;;
50671;SDS011;46021;55.882;37.654;2023-07-31T02:40:30;9.45;;;4.25;;
50671;SDS011;46021;55.882;37.654;2023-07-31T02:42:58;8.32;;;4.22;;
50671;SDS011;46021;55.882;37.654;2023-07-31T02:45:25;6.35;;;3.67;;
50671;SDS011;46021;55.882;37.654;2023-07-31T02:47:53;8.32;;;3.78;;
50671;SDS011;46021;55.882;37.654;2023-07-31T02:50:22;6.28;;;3.75;;
50671;SDS011;46021;55.882;37.654;2023-07-31T02:52:49;7.60;;;4.07;;
50671;SDS011;46021;55.882;37.654;2023-07-31T02:55:17;8.50;;;3.50;;
50671;SDS011;46021;55.882;37.654;2023-07-31T02:57:45;7.35;;;3.70;;
50671;SDS011;46021;55.882;37.654;2023-07-31T03:00:13;7.30;;;3.33;;
50671;SDS011;46021;55.882;37.654;2023-07-31T03:05:07;9.00;;;3.28;;
50671;SDS011;46021;55.882;37.654;2023-07-31T03:07:37;6.72;;;3.38;;
50671;SDS011;46021;55.882;37.654;2023-07-31T03:10:05;8.00;;;3.50;;
50671;SDS011;46021;55.882;37.654;2023-07-31T03:12:34;6.70;;;2.97;;
50671;SDS011;46021;55.882;37.654;2023-07-31T03:15:01;5.15;;;2.65;;
50671;SDS011;46021;55.882;37.654;2023-07-31T03:17:31;6.68;;;2.70;;
50671;SDS011;46021;55.882;37.654;2023-07-31T03:19:59;5.55;;;3.20;;
50671;SDS011;46021;55.882;37.654;2023-07-31T03:22:29;7.22;;;3.08;;
50671;SDS011;46021;55.882;37.654;2023-07-31T03:27:25;5.13;;;3.00;;
50671;SDS011;46021;55.882;37.654;2023-07-31T03:29:53;4.53;;;2.42;;
50671;SDS011;46021;55.882;37.654;2023-07-31T03:32:20;7.05;;;2.53;;
50671;SDS011;46021;55.882;37.654;2023-07-31T03:34:49;8.45;;;2.53;;
50671;SDS011;46021;55.882;37.654;2023-07-31T03:37:17;4.93;;;2.42;;
50671;SDS011;46021;55.882;37.654;2023-07-31T03:39:44;6.30;;;2.60;;
50671;SDS011;46021;55.882;37.654;2023-07-31T03:42:13;4.68;;;2.55;;
50671;SDS011;46021;55.882;37.654;2023-07-31T03:44:41;7.30;;;2.92;;
50671;SDS011;46021;55.882;37.654;2023-07-31T03:47:10;4.38;;;2.40;;
50671;SDS011;46021;55.882;37.654;2023-07-31T03:49:38;5.38;;;2.78;;
50671;SDS011;46021;55.882;37.654;2023-07-31T03:52:06;8.23;;;2.90;;
50671;SDS011;46021;55.882;37.654;2023-07-31T03:54:33;6.13;;;3.33;;
50671;SDS011;46021;55.882;37.654;2023-07-31T03:57:01;6.63;;;2.88;;
50671;SDS011;46021;55.882;37.654;2023-07-31T03:59:29;4.80;;;2.45;;
50671;SDS011;46021;55.882;37.654;2023-07-31T04:01:57;6.07;;;2.70;;
50671;SDS011;46021;55.882;37.654;2023-07-31T04:04:24;5.57;;;2.38;;
50671;SDS011;46021;55.882;37.654;2023-07-31T04:06:52;6.88;;;2.78;;
50671;SDS011;46021;55.882;37.654;2023-07-31T04:11:46;6.43;;;2.50;;
50671;SDS011;46021;55.882;37.654;2023-07-31T04:14:13;9.20;;;2.80;;
50671;SDS011;46021;55.882;37.654;2023-07-31T04:16:42;4.68;;;2.83;;
50671;SDS011;46021;55.882;37.654;2023-07-31T04:19:10;7.55;;;2.70;;
50671;SDS011;46021;55.882;37.654;2023-07-31T04:21:42;8.95;;;2.88;;
50671;SDS011;46021;55.882;37.654;2023-07-31T04:24:09;3.85;;;2.45;;
50671;SDS011;46021;55.882;37.654;2023-07-31T04:26:37;9.93;;;2.45;;
50671;SDS011;46021;55.882;37.654;2023-07-31T04:29:04;4.55;;;2.33;;
50671;SDS011;46021;55.882;37.654;2023-07-31T04:31:31;7.07;;;2.75;;
50671;SDS011;46021;55.882;37.654;2023-07-31T04:34:00;7.05;;;2.28;;
50671;SDS011;46021;55.882;37.654;2023-07-31T04:36:28;8.93;;;2.85;;
50671;SDS011;46021;55.882;37.654;2023-07-31T04:38:56;5.20;;;2.55;;
50671;SDS011;46021;55.882;37.654;2023-07-31T04:41:41;4.10;;;2.22;;
50671;SDS011;46021;55.882;37.654;2023-07-31T04:44:08;7.78;;;2.53;;
50671;SDS011;46021;55.882;37.654;2023-07-31T04:46:36;5.03;;;2.35;;
50671;SDS011;46021;55.882;37.654;2023-07-31T04:49:05;4.00;;;2.05;;
50671;SDS011;46021;55.882;37.654;2023-07-31T04:51:33;3.85;;;2.30;;
50671;SDS011;46021;55.882;37.654;2023-07-31T04:54:00;5.05;;;2.15;;
50671;SDS011;46021;55.882;37.654;2023-07-31T04:56:28;3.30;;;1.98;;
50671;SDS011;46021;55.882;37.654;2023-07-31T04:58:55;6.28;;;2.38;;
50671;SDS011;46021;55.882;37.654;2023-07-31T05:01:23;7.15;;;2.33;;
50671;SDS011;46021;55.882;37.654;2023-07-31T05:03:50;4.93;;;2.30;;
50671;SDS011;46021;55.882;37.654;2023-07-31T05:06:19;3.75;;;2.25;;
50671;SDS011;46021;55.882;37.654;2023-07-31T05:08:47;5.07;;;2.10;;
50671;SDS011;46021;55.882;37.654;2023-07-31T05:11:14;4.18;;;2.25;;
50671;SDS011;46021;55.882;37.654;2023-07-31T05:13:42;7.13;;;2.30;;
50671;SDS011;46021;55.882;37.654;2023-07-31T05:16:10;10.20;;;2.00;;
50671;SDS011;46021;55.882;37.654;2023-07-31T05:18:37;3.67;;;2.00;;
50671;SDS011;46021;55.882;37.654;2023-07-31T05:21:04;3.58;;;1.80;;
50671;SDS011;46021;55.882;37.654;2023-07-31T05:23:33;3.28;;;1.80;;
50671;SDS011;46021;55.882;37.654;2023-07-31T05:26:04;5.20;;;1.90;;
50671;SDS011;46021;55.882;37.654;2023-07-31T05:28:31;7.50;;;2.33;;
50671;SDS011;46021;55.882;37.654;2023-07-31T05:30:59;3.47;;;1.80;;
50671;SDS011;46021;55.882;37.654;2023-07-31T05:33:26;6.28;;;2.00;;
50671;SDS011;46021;55.882;37.654;2023-07-31T05:35:54;3.55;;;1.92;;
50671;SDS011;46021;55.882;37.654;2023-07-31T05:38:21;7.35;;;1.85;;
50671;SDS011;46021;55.882;37.654;2023-07-31T05:40:50;13.77;;;1.85;;
50671;SDS011;46021;55.882;37.654;2023-07-31T05:43:17;8.77;;;2.45;;
50671;SDS011;46021;55.882;37.654;2023-07-31T05:45:44;2.00;;;1.20;;
50671;SDS011;46021;55.882;37.654;2023-07-31T05:48:12;7.15;;;1.55;;
50671;SDS011;46021;55.882;37.654;2023-07-31T05:50:39;5.45;;;1.48;;
50671;SDS011;46021;55.882;37.654;2023-07-31T05:53:06;6.13;;;1.88;;
50671;SDS011;46021;55.882;37.654;2023-07-31T05:55:34;5.95;;;1.48;;
50671;SDS011;46021;55.882;37.654;2023-07-31T05:58:03;5.93;;;1.45;;
50671;SDS011;46021;55.882;37.654;2023-07-31T06:00:30;5.50;;;2.15;;
50671;SDS011;46021;55.882;37.654;2023-07-31T06:02:58;9.00;;;1.90;;
50671;SDS011;46021;55.882;37.654;2023-07-31T06:05:25;6.32;;;1.85;;
50671;SDS011;46021;55.882;37.654;2023-07-31T06:07:54;5.70;;;1.70;;
50671;SDS011;46021;55.882;37.654;2023-07-31T06:10:22;3.53;;;1.40;;
50671;SDS011;46021;55.882;37.654;2023-07-31T06:12:49;7.53;;;1.45;;
50671;SDS011;46021;55.882;37.654;2023-07-31T06:15:18;2.60;;;1.50;;
50671;SDS011;46021;55.882;37.654;2023-07-31T06:17:46;3.70;;;1.70;;
50671;SDS011;46021;55.882;37.654;2023-07-31T06:20:13;3.10;;;1.40;;
50671;SDS011;46021;55.882;37.654;2023-07-31T06:22:40;4.47;;;1.42;;
50671;SDS011;46021;55.882;37.654;2023-07-31T06:25:08;2.28;;;1.30;;
50671;SDS011;46021;55.882;37.654;2023-07-31T06:27:35;7.97;;;2.15;;
50671;SDS011;46021;55.882;37.654;2023-07-31T06:30:03;12.77;;;2.47;;
50671;SDS011;46021;55.882;37.654;2023-07-31T06:32:32;7.95;;;1.90;;
50671;SDS011;46021;55.882;37.654;2023-07-31T06:35:00;4.15;;;2.00;;
50671;SDS011;46021;55.882;37.654;2023-07-31T06:37:29;3.60;;;2.00;;
50671;SDS011;46021;55.882;37.654;2023-07-31T06:39:56;6.13;;;2.15;;
50671;SDS011;46021;55.882;37.654;2023-07-31T06:42:24;4.45;;;2.20;;
50671;SDS011;46021;55.882;37.654;2023-07-31T06:44:51;3.95;;;1.83;;
50671;SDS011;46021;55.882;37.654;2023-07-31T06:49:47;6.93;;;2.42;;
50671;SDS011;46021;55.882;37.654;2023-07-31T06:52:15;9.82;;;2.60;;
50671;SDS011;46021;55.882;37.654;2023-07-31T06:54:42;7.22;;;1.80;;
50671;SDS011;46021;55.882;37.654;2023-07-31T06:57:10;4.85;;;2.97;;
50671;SDS011;46021;55.882;37.654;2023-07-31T06:59:37;3.13;;;2.00;;
50671;SDS011;46021;55.882;37.654;2023-07-31T07:02:05;3.28;;;1.90;;
50671;SDS011;46021;55.882;37.654;2023-07-31T07:04:33;7.53;;;1.92;;
50671;SDS011;46021;55.882;37.654;2023-07-31T07:07:02;6.70;;;1.65;;
50671;SDS011;46021;55.882;37.654;2023-07-31T07:09:29;2.40;;;1.60;;
50671;SDS011;46021;55.882;37.654;2023-07-31T07:11:56;5.28;;;1.95;;
50671;SDS011;46021;55.882;37.654;2023-07-31T07:16:51;3.42;;;1.42;;
50671;SDS011;46021;55.882;37.654;2023-07-31T07:21:46;5.38;;;1.27;;
50671;SDS011;46021;55.882;37.654;2023-07-31T07:24:15;3.05;;;1.35;;
50671;SDS011;46021;55.882;37.654;2023-07-31T07:26:42;3.38;;;1.27;;
50671;SDS011;46021;55.882;37.654;2023-07-31T07:29:09;3.38;;;1.60;;
50671;SDS011;46021;55.882;37.654;2023-07-31T07:34:03;4.32;;;1.58;;
50671;SDS011;46021;55.882;37.654;2023-07-31T07:36:31;7.25;;;1.95;;
50671;SDS011;46021;55.882;37.654;2023-07-31T07:38:59;5.43;;;1.65;;
50671;SDS011;46021;55.882;37.654;2023-07-31T07:43:56;2.05;;;1.50;;
50671;SDS011;46021;55.882;37.654;2023-07-31T07:46:24;2.25;;;1.45;;
50671;SDS011;46021;55.882;37.654;2023-07-31T07:51:18;6.93;;;1.73;;
50671;SDS011;46021;55.882;37.654;2023-07-31T07:53:46;4.28;;;2.25;;
50671;SDS011;46021;55.882;37.654;2023-07-31T07:58:40;4.18;;;1.80;;
50671;SDS011;46021;55.882;37.654;2023-07-31T08:01:09;2.67;;;1.40;;
50671;SDS011;46021;55.882;37.654;2023-07-31T08:03:36;2.67;;;1.40;;
50671;SDS011;46021;55.882;37.654;2023-07-31T08:06:04;4.45;;;1.42;;
50671;SDS011;46021;55.882;37.654;2023-07-31T08:08:31;4.10;;;1.83;;
50671;SDS011;46021;55.882;37.654;2023-07-31T08:10:58;2.47;;;1.45;;
50671;SDS011;46021;55.882;37.654;2023-07-31T08:13:25;4.35;;;1.70;;
50671;SDS011;46021;55.882;37.654;2023-07-31T08:15:53;3.30;;;2.15;;
50671;SDS011;46021;55.882;37.654;2023-07-31T08:18:21;2.97;;;1.83;;
50671;SDS011;46021;55.882;37.654;2023-07-31T08:20:48;3.85;;;1.90;;
50671;SDS011;46021;55.882;37.654;2023-07-31T08:23:15;3.55;;;1.63;;
50671;SDS011;46021;55.882;37.654;2023-07-31T08:25:43;3.42;;;1.63;;
50671;SDS011;46021;55.882;37.654;2023-07-31T08:28:10;2.33;;;1.48;;
50671;SDS011;46021;55.882;37.654;2023-07-31T08:30:37;3.47;;;1.80;;
50671;SDS011;46021;55.882;37.654;2023-07-31T08:33:04;5.05;;;1.77;;
50671;SDS011;46021;55.882;37.654;2023-07-31T08:38:00;8.50;;;1.67;;
50671;SDS011;46021;55.882;37.654;2023-07-31T08:42:55;3.08;;;1.73;;
50671;SDS011;46021;55.882;37.654;2023-07-31T08:45:27;2.90;;;1.60;;
50671;SDS011;46021;55.882;37.654;2023-07-31T08:47:55;5.53;;;1.55;;
50671;SDS011;46021;55.882;37.654;2023-07-31T08:50:23;2.40;;;1.42;;
50671;SDS011;46021;55.882;37.654;2023-07-31T08:55:18;4.75;;;1.75;;
50671;SDS011;46021;55.882;37.654;2023-07-31T08:57:50;2.90;;;1.73;;
50671;SDS011;46021;55.882;37.654;2023-07-31T09:00:19;3.75;;;1.70;;
50671;SDS011;46021;55.882;37.654;2023-07-31T09:02:51;3.42;;;1.85;;
50671;SDS011;46021;55.882;37.654;2023-07-31T09:05:22;2.78;;;1.38;;
50671;SDS011;46021;55.882;37.654;2023-07-31T09:07:54;2.08;;;1.27;;
50671;SDS011;46021;55.882;37.654;2023-07-31T09:10:23;3.50;;;1.23;;
50671;SDS011;46021;55.882;37.654;2023-07-31T09:12:51;3.10;;;1.52;;
50671;SDS011;46021;55.882;37.654;2023-07-31T09:15:19;7.57;;;1.70;;
50671;SDS011;46021;55.882;37.654;2023-07-31T09:17:47;3.50;;;1.45;;
50671;SDS011;46021;55.882;37.654;2023-07-31T09:20:14;3.00;;;1.08;;
50671;SDS011;46021;55.882;37.654;2023-07-31T09:22:43;2.58;;;1.35;;
50671;SDS011;46021;55.882;37.654;2023-07-31T09:25:16;5.13;;;1.40;;
50671;SDS011;46021;55.882;37.654;2023-07-31T09:27:46;2.95;;;1.90;;
50671;SDS011;46021;55.882;37.654;2023-07-31T09:30:15;4.32;;;2.10;;
50671;SDS011;46021;55.882;37.654;2023-07-31T09:32:43;6.68;;;3.00;;
50671;SDS011;46021;55.882;37.654;2023-07-31T09:35:15;6.60;;;3.40;;
50671;SDS011;46021;55.882;37.654;2023-07-31T09:37:50;5.68;;;2.55;;
50671;SDS011;46021;55.882;37.654;2023-07-31T09:40:26;8.48;;;3.15;;
50671;SDS011;46021;55.882;37.654;2023-07-31T09:42:58;7.38;;;2.33;;
50671;SDS011;46021;55.882;37.654;2023-07-31T09:45:27;4.78;;;1.80;;
50671;SDS011;46021;55.882;37.654;2023-07-31T09:47:54;2.45;;;1.60;;
50671;SDS011;46021;55.882;37.654;2023-07-31T09:50:22;3.25;;;1.70;;
50671;SDS011;46021;55.882;37.654;2023-07-31T09:52:51;4.85;;;1.73;;
50671;SDS011;46021;55.882;37.654;2023-07-31T09:55:19;2.35;;;1.67;;
50671;SDS011;46021;55.882;37.654;2023-07-31T09:57:49;2.67;;;1.50;;
50671;SDS011;46021;55.882;37.654;2023-07-31T10:00:17;2.83;;;1.60;;
50671;SDS011;46021;55.882;37.654;2023-07-31T10:02:47;6.80;;;1.38;;
50671;SDS011;46021;55.882;37.654;2023-07-31T10:05:17;7.72;;;2.00;;
50671;SDS011;46021;55.882;37.654;2023-07-31T10:07:50;3.17;;;1.48;;
50671;SDS011;46021;55.882;37.654;2023-07-31T10:10:20;2.78;;;1.30;;
50671;SDS011;46021;55.882;37.654;2023-07-31T10:12:50;5.78;;;1.73;;
50671;SDS011;46021;55.882;37.654;2023-07-31T10:15:19;3.20;;;1.42;;
50671;SDS011;46021;55.882;37.654;2023-07-31T10:17:47;3.85;;;1.60;;
50671;SDS011;46021;55.882;37.654;2023-07-31T10:20:17;6.35;;;1.77;;
50671;SDS011;46021;55.882;37.654;2023-07-31T10:22:57;5.07;;;1.55;;
50671;SDS011;46021;55.882;37.654;2023-07-31T10:25:26;2.75;;;1.77;;
50671;SDS011;46021;55.882;37.654;2023-07-31T10:27:59;2.97;;;1.70;;
50671;SDS011;46021;55.882;37.654;2023-07-31T10:30:42;3.95;;;1.73;;
50671;SDS011;46021;55.882;37.654;2023-07-31T10:33:30;3.78;;;1.55;;
50671;SDS011;46021;55.882;37.654;2023-07-31T10:36:17;4.70;;;1.70;;
50671;SDS011;46021;55.882;37.654;2023-07-31T10:38:57;3.45;;;1.63;;
50671;SDS011;46021;55.882;37.654;2023-07-31T10:41:42;4.00;;;1.60;;
50671;SDS011;46021;55.882;37.654;2023-07-31T10:44:13;4.40;;;2.42;;
50671;SDS011;46021;55.882;37.654;2023-07-31T10:46:46;2.97;;;1.60;;
50671;SDS011;46021;55.882;37.654;2023-07-31T10:49:20;2.17;;;1.27;;
50671;SDS011;46021;55.882;37.654;2023-07-31T10:51:54;2.85;;;1.23;;
50671;SDS011;46021;55.882;37.654;2023-07-31T10:54:24;5.15;;;1.50;;
50671;SDS011;46021;55.882;37.654;2023-07-31T10:56:54;2.55;;;1.40;;
50671;SDS011;46021;55.882;37.654;2023-07-31T10:59:27;2.40;;;1.50;;
50671;SDS011;46021;55.882;37.654;2023-07-31T11:02:02;4.97;;;1.85;;
50671;SDS011;46021;55.882;37.654;2023-07-31T11:04:29;4.50;;;1.52;;
50671;SDS011;46021;55.882;37.654;2023-07-31T11:06:58;4.32;;;1.80;;
50671;SDS011;46021;55.882;37.654;2023-07-31T11:09:29;2.55;;;1.45;;
50671;SDS011;46021;55.882;37.654;2023-07-31T11:11:58;1.92;;;1.40;;
50671;SDS011;46021;55.882;37.654;2023-07-31T11:14:27;4.47;;;1.42;;
50671;SDS011;46021;55.882;37.654;2023-07-31T11:16:55;2.50;;;1.45;;
50671;SDS011;46021;55.882;37.654;2023-07-31T11:19:22;2.72;;;1.63;;
50671;SDS011;46021;55.882;37.654;2023-07-31T11:21:50;2.80;;;1.70;;
50671;SDS011;46021;55.882;37.654;2023-07-31T11:24:19;4.53;;;1.40;;
50671;SDS011;46021;55.882;37.654;2023-07-31T11:26:50;4.55;;;1.80;;
50671;SDS011;46021;55.882;37.654;2023-07-31T11:29:19;5.07;;;1.67;;
50671;SDS011;46021;55.882;37.654;2023-07-31T11:31:49;3.92;;;1.92;;
50671;SDS011;46021;55.882;37.654;2023-07-31T11:34:16;2.80;;;1.42;;
50671;SDS011;46021;55.882;37.654;2023-07-31T11:36:52;5.28;;;1.73;;
50671;SDS011;46021;55.882;37.654;2023-07-31T11:39:20;2.97;;;1.92;;
50671;SDS011;46021;55.882;37.654;2023-07-31T11:41:47;2.53;;;1.55;;
50671;SDS011;46021;55.882;37.654;2023-07-31T11:46:42;3.58;;;1.70;;
50671;SDS011;46021;55.882;37.654;2023-07-31T11:49:11;4.78;;;1.80;;
50671;SDS011;46021;55.882;37.654;2023-07-31T11:51:39;4.97;;;1.90;;
50671;SDS011;46021;55.882;37.654;2023-07-31T11:54:07;4.22;;;2.17;;
50671;SDS011;46021;55.882;37.654;2023-07-31T11:56:34;4.65;;;1.65;;
50671;SDS011;46021;55.882;37.654;2023-07-31T11:59:02;4.82;;;2.00;;
50671;SDS011;46021;55.882;37.654;2023-07-31T12:01:34;3.75;;;2.00;;
50671;SDS011;46021;55.882;37.654;2023-07-31T12:04:02;4.22;;;1.75;;
50671;SDS011;46021;55.882;37.654;2023-07-31T12:06:35;4.25;;;1.90;;
50671;SDS011;46021;55.882;37.654;2023-07-31T12:09:03;5.05;;;2.00;;
50671;SDS011;46021;55.882;37.654;2023-07-31T12:11:30;3.35;;;2.00;;
50671;SDS011;46021;55.882;37.654;2023-07-31T12:13:58;3.22;;;1.80;;
50671;SDS011;46021;55.882;37.654;2023-07-31T12:16:26;5.80;;;2.00;;
50671;SDS011;46021;55.882;37.654;2023-07-31T12:18:53;4.53;;;2.15;;
50671;SDS011;46021;55.882;37.654;2023-07-31T12:21:21;3.35;;;2.30;;
50671;SDS011;46021;55.882;37.654;2023-07-31T12:23:51;7.70;;;2.20;;
50671;SDS011;46021;55.882;37.654;2023-07-31T12:26:19;3.30;;;2.00;;
50671;SDS011;46021;55.882;37.654;2023-07-31T12:28:49;4.32;;;2.00;;
50671;SDS011;46021;55.882;37.654;2023-07-31T12:31:17;7.05;;;2.30;;
50671;SDS011;46021;55.882;37.654;2023-07-31T12:33:49;5.72;;;2.00;;
50671;SDS011;46021;55.882;37.654;2023-07-31T12:36:18;4.55;;;2.40;;
50671;SDS011;46021;55.882;37.654;2023-07-31T12:38:50;5.90;;;2.25;;
50671;SDS011;46021;55.882;37.654;2023-07-31T12:41:19;4.75;;;2.35;;
50671;SDS011;46021;55.882;37.654;2023-07-31T12:43:46;8.75;;;2.22;;
50671;SDS011;46021;55.882;37.654;2023-07-31T12:46:14;4.53;;;2.20;;
50671;SDS011;46021;55.882;37.654;2023-07-31T12:48:42;3.67;;;2.47;;
50671;SDS011;46021;55.882;37.654;2023-07-31T12:51:10;6.15;;;2.58;;
50671;SDS011;46021;55.882;37.654;2023-07-31T12:53:37;4.80;;;2.42;;
50671;SDS011;46021;55.882;37.654;2023-07-31T12:56:07;4.20;;;2.30;;
50671;SDS011;46021;55.882;37.654;2023-07-31T12:58:35;3.75;;;2.28;;
50671;SDS011;46021;55.882;37.654;2023-07-31T13:01:02;4.72;;;2.25;;
50671;SDS011;46021;55.882;37.654;2023-07-31T13:03:32;8.48;;;2.38;;
50671;SDS011;46021;55.882;37.654;2023-07-31T13:06:00;3.78;;;2.35;;
50671;SDS011;46021;55.882;37.654;2023-07-31T13:08:28;4.18;;;2.42;;
50671;SDS011;46021;55.882;37.654;2023-07-31T13:10:56;5.88;;;2.55;;
50671;SDS011;46021;55.882;37.654;2023-07-31T13:13:25;3.70;;;2.10;;
50671;SDS011;46021;55.882;37.654;2023-07-31T13:15:53;5.30;;;2.13;;
50671;SDS011;46021;55.882;37.654;2023-07-31T13:18:20;4.20;;;2.00;;
50671;SDS011;46021;55.882;37.654;2023-07-31T13:20:48;6.43;;;2.20;;
50671;SDS011;46021;55.882;37.654;2023-07-31T13:23:16;4.00;;;2.13;;
50671;SDS011;46021;55.882;37.654;2023-07-31T13:25:44;6.72;;;1.90;;
50671;SDS011;46021;55.882;37.654;2023-07-31T13:28:12;3.33;;;1.88;;
50671;SDS011;46021;55.882;37.654;2023-07-31T13:30:41;3.25;;;1.85;;
50671;SDS011;46021;55.882;37.654;2023-07-31T13:33:09;3.47;;;1.92;;
50671;SDS011;46021;55.882;37.654;2023-07-31T13:35:36;8.48;;;2.10;;
50671;SDS011;46021;55.882;37.654;2023-07-31T13:38:04;13.57;;;1.85;;
50671;SDS011;46021;55.882;37.654;2023-07-31T13:40:32;2.55;;;1.80;;
50671;SDS011;46021;55.882;37.654;2023-07-31T13:42:59;5.20;;;2.10;;
50671;SDS011;46021;55.882;37.654;2023-07-31T13:45:27;2.50;;;1.88;;
50671;SDS011;46021;55.882;37.654;2023-07-31T13:47:56;5.20;;;2.03;;
50671;SDS011;46021;55.882;37.654;2023-07-31T13:50:24;6.97;;;2.10;;
50671;SDS011;46021;55.882;37.654;2023-07-31T13:52:52;4.75;;;2.20;;
50671;SDS011;46021;55.882;37.654;2023-07-31T13:55:19;3.00;;;1.83;;
50671;SDS011;46021;55.882;37.654;2023-07-31T13:57:47;3.45;;;2.22;;
50671;SDS011;46021;55.882;37.654;2023-07-31T14:00:59;8.32;;;2.58;;
50671;SDS011;46021;55.882;37.654;2023-07-31T14:03:27;4.03;;;2.20;;
50671;SDS011;46021;55.882;37.654;2023-07-31T14:05:54;5.93;;;2.38;;
50671;SDS011;46021;55.882;37.654;2023-07-31T14:08:22;5.30;;;2.33;;
50671;SDS011;46021;55.882;37.654;2023-07-31T14:10:49;6.47;;;2.25;;
50671;SDS011;46021;55.882;37.654;2023-07-31T14:13:16;4.68;;;2.42;;
50671;SDS011;46021;55.882;37.654;2023-07-31T14:15:43;9.27;;;2.55;;
50671;SDS011;46021;55.882;37.654;2023-07-31T14:18:11;12.02;;;3.00;;
50671;SDS011;46021;55.882;37.654;2023-07-31T14:20:39;5.65;;;2.15;;
50671;SDS011;46021;55.882;37.654;2023-07-31T14:23:06;5.20;;;2.30;;
50671;SDS011;46021;55.882;37.654;2023-07-31T14:25:33;8.00;;;2.50;;
50671;SDS011;46021;55.882;37.654;2023-07-31T14:28:00;5.82;;;2.55;;
50671;SDS011;46021;55.882;37.654;2023-07-31T14:30:27;10.40;;;3.05;;
50671;SDS011;46021;55.882;37.654;2023-07-31T14:32:54;4.20;;;2.60;;
50671;SDS011;46021;55.882;37.654;2023-07-31T14:35:23;5.80;;;2.63;;
50671;SDS011;46021;55.882;37.654;2023-07-31T14:37:50;8.25;;;1.98;;
50671;SDS011;46021;55.882;37.654;2023-07-31T14:40:17;4.20;;;2.28;;
50671;SDS011;46021;55.882;37.654;2023-07-31T14:42:45;5.47;;;2.15;;
50671;SDS011;46021;55.882;37.654;2023-07-31T14:45:12;4.95;;;2.28;;
50671;SDS011;46021;55.882;37.654;2023-07-31T14:47:39;5.97;;;2.58;;
50671;SDS011;46021;55.882;37.654;2023-07-31T14:50:06;7.50;;;2.30;;
50671;SDS011;46021;55.882;37.654;2023-07-31T14:52:35;3.85;;;2.10;;
50671;SDS011;46021;55.882;37.654;2023-07-31T14:55:02;3.78;;;2.22;;
50671;SDS011;46021;55.882;37.654;2023-07-31T14:57:30;7.70;;;3.40;;
50671;SDS011;46021;55.882;37.654;2023-07-31T14:59:57;5.22;;;2.47;;
50671;SDS011;46021;55.882;37.654;2023-07-31T15:02:25;15.82;;;2.88;;
50671;SDS011;46021;55.882;37.654;2023-07-31T15:04:53;4.20;;;2.28;;
50671;SDS011;46021;55.882;37.654;2023-07-31T15:07:20;6.63;;;2.45;;
50671;SDS011;46021;55.882;37.654;2023-07-31T15:09:48;7.35;;;2.20;;
50671;SDS011;46021;55.882;37.654;2023-07-31T15:12:15;4.53;;;2.30;;
50671;SDS011;46021;55.882;37.654;2023-07-31T15:14:42;3.80;;;2.33;;
50671;SDS011;46021;55.882;37.654;2023-07-31T15:17:09;4.22;;;2.30;;
50671;SDS011;46021;55.882;37.654;2023-07-31T15:19:36;8.45;;;2.60;;
50671;SDS011;46021;55.882;37.654;2023-07-31T15:22:04;5.82;;;2.65;;
50671;SDS011;46021;55.882;37.654;2023-07-31T15:24:31;4.53;;;2.30;;